ADDS METAR Data INFO
IDs: Format: Raw Decoded Include TAF

Data at: 1750 UTC 21 Oct 2017

KERY 211734Z AUTO 18012G21KT 7SM CLR 19/11 A2999 RMK AO2 T01850113
KERY 211715Z AUTO 19011G19KT 7SM CLR 19/11 A2999 RMK AO2 T01880112
KERY 211655Z AUTO 18015G20KT 5SM HZ CLR 19/11 A2999 RMK AO2 T01910107
KERY 211634Z AUTO 19013G22KT 7SM CLR 19/11 A3000 RMK AO2 T01880106
KERY 211615Z AUTO 17013G21KT 7SM CLR 19/11 A2999 RMK AO2 T01880110
KERY 211554Z AUTO 19013G22KT 7SM CLR 18/11 A3000 RMK AO2 T01810110
KERY 211534Z AUTO 19019G24KT 4SM HZ CLR 18/11 A2999 RMK AO2 T01800110
KERY 211515Z AUTO 18013G19KT 5SM HZ CLR 17/11 A3000 RMK AO2 T01690112
KERY 211454Z AUTO 19014G21KT 7SM CLR 17/12 A2999 RMK AO2 T01700116
KERY 211434Z AUTO 19011G18KT 7SM CLR 16/12 A2998 RMK AO2 T01610117
KERY 211415Z AUTO 18009G17KT 7SM CLR 16/12 A2999 RMK AO2 T01560119
KERY 211354Z AUTO 18010G18KT 10SM CLR 16/12 A3000 RMK AO2 T01550122
KERY 211335Z AUTO 18008KT 7SM CLR 15/12 A3000 RMK AO2 T01510123
KERY 211315Z AUTO 18008KT 5SM HZ CLR 15/13 A3000 RMK AO2 T01480125
KERY 211254Z AUTO 17010G17KT 10SM CLR 15/12 A2999 RMK AO2 T01480123
KERY 211235Z AUTO 18009G17KT 7SM CLR 15/13 A2999 RMK AO2 T01480125
KERY 211215Z AUTO 19012G17KT 10SM CLR 15/12 A2999 RMK AO2 T01490123
KERY 211154Z AUTO 18011G16KT 10SM CLR 15/13 A2999 RMK AO2 T01470125 10156 20145
KERY 211135Z AUTO 18010G14KT 7SM CLR 15/13 A2999 RMK AO2 T01460125
KERY 211115Z AUTO 18011G16KT 7SM CLR 15/13 A2999 RMK AO2 T01470125
KERY 211054Z AUTO 18010G16KT 7SM CLR 15/12 A2999 RMK AO2 T01500121
KERY 211035Z AUTO 18008G17KT 10SM CLR 15/12 A2999 RMK AO2 T01540120
KERY 211014Z AUTO 19011KT 7SM CLR 15/12 A2999 RMK AO2 T01510123
KERY 210954Z AUTO 19010G17KT 7SM CLR 15/13 A2999 RMK AO2 T01530125
KERY 210935Z AUTO 18011G16KT 7SM CLR 15/13 A2999 RMK AO2 T01530127
KERY 210914Z AUTO 19011G18KT 10SM CLR 16/13 A2999 RMK AO2 T01550127
KERY 210854Z AUTO 18011KT 10SM CLR 15/13 A2999 RMK AO2 T01520130
KERY 210835Z AUTO 19010KT 10SM CLR 15/13 A3000 RMK AO2 T01510130
KERY 210815Z AUTO 19008KT 7SM CLR 15/13 A3000 RMK AO2 T01520127
KERY 210754Z AUTO 19011KT 10SM CLR 15/13 A3000 RMK AO2 T01540127
KERY 210735Z AUTO 20013KT 10SM CLR 16/13 A2999 RMK AO2 T01550130
KERY 210714Z AUTO 20013G18KT 10SM CLR 15/13 A2999 RMK AO2 T01540130
KERY 210655Z AUTO 21013G19KT 7SM CLR 16/13 A2999 RMK AO2 T01560130
KERY 210635Z AUTO 20013KT 7SM CLR 15/13 A2999 RMK AO2 T01510130
KERY 210614Z AUTO 20010G15KT 10SM CLR 15/13 A2999 RMK AO2 T01470130
KERY 210555Z AUTO 20010KT 10SM CLR 14/13 A2999 RMK AO2 T01440132 10146 20131 402000078
KERY 210535Z AUTO 19006KT 10SM SCT002 13/13 A2999 RMK AO2 T01330128
KERY 210514Z AUTO 19005KT 10SM SCT002 13/13 A2999 RMK AO2 T01310126
KERY 210455Z AUTO 19006KT 10SM SCT002 14/13 A2999 RMK AO2 T01350130
KERY 210435Z AUTO 19007KT 10SM CLR 14/13 A2999 RMK AO2 T01410132
KERY 210414Z AUTO 20011KT 10SM CLR 15/14 A2998 RMK AO2 T01450135
KERY 210355Z AUTO 20010KT 10SM CLR 14/14 A2998 RMK AO2 T01440135
KERY 210335Z AUTO 20009KT 10SM CLR 14/14 A2998 RMK AO2 T01400135
KERY 210314Z AUTO 20011KT 10SM CLR 14/14 A2998 RMK AO2 T01400135
KERY 210255Z AUTO 20011KT 10SM CLR 14/13 A2998 RMK AO2 T01370132
KERY 210234Z AUTO 20012G15KT 10SM CLR 14/13 A2998 RMK AO2 T01370132
KERY 210215Z AUTO 20012G17KT 10SM SCT002 14/13 A2998 RMK AO2 T01380133
KERY 210155Z AUTO 20011G16KT 10SM CLR 14/13 A2998 RMK AO2 T01370132
KERY 210134Z AUTO 21011G15KT 10SM CLR 14/13 A2997 RMK AO2 T01370132
KERY 210115Z AUTO 20011KT 10SM CLR 14/14 A2997 RMK AO2 T01400135
KERY 210055Z AUTO 20012KT 10SM CLR 14/14 A2997 RMK AO2 T01410136
KERY 210034Z AUTO 20011G18KT 10SM CLR 14/14 A2997 RMK AO2 T01440138
KERY 210015Z AUTO 21013KT 10SM CLR 15/14 A2996 RMK AO2 T01450140
KERY 202355Z AUTO 21012G16KT 10SM SCT002 15/14 A2996 RMK AO2 T01450140 10200 20145
KERY 202334Z AUTO 21011KT 10SM CLR 15/14 A2996 RMK AO2 T01460140
KERY 202315Z AUTO 20009G17KT 7SM CLR 15/14 A2996 RMK AO2 T01500136
KERY 202255Z AUTO 19010G16KT 7SM CLR 16/13 A2996 RMK AO2 T01550133
KERY 202234Z AUTO 20010G15KT 10SM CLR 16/13 A2996 RMK AO2 T01620130
KERY 202215Z AUTO 20011G14KT 7SM CLR 17/13 A2995 RMK AO2 T01700128
KERY 202155Z AUTO 20013G18KT 10SM CLR 18/13 A2995 RMK AO2 T01770128
KERY 202134Z AUTO 20011G21KT 7SM CLR 18/13 A2995 RMK AO2 T01830126
KERY 202115Z AUTO 20013G20KT 7SM CLR 18/13 A2996 RMK AO2 T01840131
KERY 202055Z AUTO 20014KT 7SM CLR 19/13 A2996 RMK AO2 T01860129
KERY 202034Z AUTO 19016G21KT 7SM CLR 18/13 A2997 RMK AO2 T01840130
KERY 202015Z AUTO 19014G18KT 7SM CLR 18/13 A2997 RMK AO2 T01820126
KERY 201954Z AUTO 20016G19KT 7SM CLR 19/12 A2997 RMK AO2 T01930124
KERY 201935Z AUTO 20015G21KT 7SM CLR 20/12 A2997 RMK AO2 T01950123
KERY 201915Z AUTO 20013KT 5SM HZ CLR 20/13 A2998 RMK AO2 T01970129
KERY 201854Z AUTO 20017KT 7SM CLR 20/13 A2998 RMK AO2 T01960131
KERY 201835Z AUTO 20014G20KT 7SM CLR 19/13 A2999 RMK AO2 T01930130
KERY 201815Z AUTO 19016G21KT 7SM CLR 19/13 A2999 RMK AO2 T01900128
KERY 201754Z AUTO 19016G22KT 7SM CLR 19/12 A2999 RMK AO2 T01900123 10191 20115
KERY 201734Z AUTO 20016G20KT 5SM HZ CLR 19/13 A3000 RMK AO2 T01910126
KERY 201715Z AUTO 19016G21KT 10SM CLR 19/13 A3000 RMK AO2 T01890127
KERY 201654Z AUTO 21014G21KT 7SM CLR 19/13 A3001 RMK AO2 T01850126
KERY 201635Z AUTO 20016G20KT 7SM CLR 18/13 A3001 RMK AO2 T01820126
KERY 201615Z AUTO 19015G21KT 10SM CLR 18/13 A3001 RMK AO2 T01770125
KERY 201554Z AUTO 20014KT 10SM CLR 17/13 A3002 RMK AO2 T01740126
KERY 201535Z AUTO 21015G22KT 10SM CLR 17/13 A3002 RMK AO2 T01700126
KERY 201515Z AUTO 20015G22KT 10SM CLR 16/13 A3002 RMK AO2 T01630125
KERY 201454Z AUTO 21015G22KT 10SM CLR 16/13 A3003 RMK AO2 T01580128
KERY 201435Z AUTO 21016G21KT 7SM CLR 15/13 A3003 RMK AO2 T01510130
KERY 201414Z AUTO 20013KT 7SM CLR 15/13 A3003 RMK AO2 T01450131
KERY 201354Z AUTO 20013G19KT 10SM CLR 14/13 A3004 RMK AO2 T01390131
KERY 201335Z AUTO 19015G20KT 10SM CLR 13/13 A3004 RMK AO2 T01330128
KERY 201315Z AUTO 20012G16KT 10SM CLR 12/12 A3004 RMK AO2 T01200115
KERY 201254Z AUTO 19013KT 10SM CLR 12/11 A3004 RMK AO2 T01190109
KERY 201235Z AUTO 20011KT 10SM CLR 12/10 A3004 RMK AO2 T01150101
KERY 201215Z AUTO 20013G19KT 10SM CLR 12/10 A3004 RMK AO2 T01150102
KERY 201154Z AUTO 20013G19KT 10SM CLR 12/11 A3004 RMK AO2 T01170105 10117 20078
KERY 201135Z AUTO 20014KT 10SM CLR 12/11 A3004 RMK AO2 T01150106
KERY 201114Z AUTO 20013KT 7SM SCT002 11/11 A3005 RMK AO2 T01130105
KERY 201055Z AUTO 19010KT 10SM SCT002 11/11 A3005 RMK AO2 T01110106
KERY 201035Z AUTO 19009KT 10SM CLR 11/11 A3006 RMK AO2 T01100105
KERY 201014Z AUTO 20009KT 10SM CLR 11/10 A3006 RMK AO2 T01070102
KERY 200955Z AUTO 19008KT 10SM CLR 10/10 A3006 RMK AO2 T01010096
KERY 200935Z AUTO 19010KT 10SM CLR 09/09 A3006 RMK AO2 T00930088
KERY 200914Z AUTO 20007KT 10SM CLR 08/07 A3006 RMK AO2 T00780073
KERY 200855Z AUTO 20007KT 10SM CLR 08/08 A3007 RMK AO2 T00810076
KERY 200835Z AUTO 21007KT 10SM CLR 09/08 A3007 RMK AO2 T00860081
KERY 200814Z AUTO 21007KT 10SM CLR 09/09 A3007 RMK AO2 T00900085
KERY 200755Z AUTO 20005KT 10SM CLR 09/09 A3007 RMK AO2 T00900085
KERY 200735Z AUTO 20007KT 10SM CLR 10/10 A3007 RMK AO2 T01030098
KERY 200714Z AUTO 20010KT 5SM BR CLR 10/10 A3006 RMK AO2 T01030098
KERY 200655Z AUTO 20009KT 10SM CLR 10/10 A3006 RMK AO2 T01010096
KERY 200635Z AUTO 20008KT 10SM CLR 10/09 A3006 RMK AO2 T00980093
KERY 200614Z AUTO 19008KT 10SM CLR 10/09 A3006 RMK AO2 T00960091
KERY 200555Z AUTO 20008KT 10SM CLR 10/09 A3006 RMK AO2 T00970092 10100 20074 401630070